createdAt,value
2023-01-25T00:02:17.314Z,1.60
2023-01-25T00:06:10.001Z,1.66
2023-01-25T00:10:02.566Z,1.71
2023-01-25T00:13:56.621Z,1.64
2023-01-25T00:17:49.564Z,1.63
2023-01-25T00:21:42.272Z,1.66
2023-01-25T00:25:35.199Z,1.55
2023-01-25T00:29:28.118Z,1.59
2023-01-25T00:33:52.932Z,1.40
2023-01-25T00:37:49.973Z,1.40
2023-01-25T00:41:44.013Z,1.32
2023-01-25T00:45:36.688Z,1.36
2023-01-25T00:49:31.863Z,1.25
2023-01-25T00:53:24.583Z,1.19
2023-01-25T00:57:17.279Z,1.17
2023-01-25T01:01:12.575Z,1.17
2023-01-25T01:05:06.165Z,1.14
2023-01-25T01:08:59.444Z,1.18
2023-01-25T01:12:52.330Z,1.12
2023-01-25T01:16:45.238Z,1.17
2023-01-25T01:20:37.945Z,1.09
2023-01-25T01:24:30.729Z,1.09
2023-01-25T01:28:23.569Z,1.15
2023-01-25T01:32:16.523Z,1.12
2023-01-25T01:36:10.324Z,1.09
2023-01-25T01:40:03.067Z,1.21
2023-01-25T01:43:55.866Z,1.31
2023-01-25T01:47:49.163Z,1.28
2023-01-25T01:51:48.415Z,1.39
2023-01-25T01:55:41.278Z,1.34
2023-01-25T01:59:41.194Z,1.36
2023-01-25T02:03:35.029Z,1.40
2023-01-25T02:07:30.500Z,1.45
2023-01-25T02:11:27.054Z,1.34
2023-01-25T02:15:20.004Z,1.40
2023-01-25T02:19:22.845Z,1.42
2023-01-25T02:23:36.377Z,1.35
2023-01-25T02:27:29.114Z,1.36
2023-01-25T02:31:25.377Z,1.43
2023-01-25T02:35:23.415Z,1.35
2023-01-25T02:39:20.425Z,1.21
2023-01-25T02:43:14.911Z,1.27
2023-01-25T02:47:07.656Z,1.02
2023-01-25T02:51:00.772Z,1.18
2023-01-25T02:54:53.289Z,1.02
2023-01-25T02:58:46.320Z,1.09
2023-01-25T03:02:39.267Z,1.04
2023-01-25T03:06:32.820Z,0.90
2023-01-25T03:10:25.893Z,0.80
2023-01-25T03:14:18.447Z,0.92
2023-01-25T03:18:11.084Z,0.97
2023-01-25T03:22:05.925Z,0.91
2023-01-25T03:26:12.152Z,0.80
2023-01-25T03:30:05.895Z,0.60
2023-01-25T03:33:58.927Z,0.60
2023-01-25T03:37:51.493Z,0.52
2023-01-25T03:41:45.336Z,0.46
2023-01-25T03:45:38.013Z,0.54
2023-01-25T03:49:30.660Z,0.42
2023-01-25T03:53:29.362Z,0.53
2023-01-25T03:57:21.925Z,0.41
2023-01-25T04:01:15.046Z,0.38
2023-01-25T04:05:08.636Z,0.35
2023-01-25T04:09:10.956Z,0.43
2023-01-25T04:13:03.813Z,0.38
2023-01-25T04:16:56.462Z,0.53
2023-01-25T04:20:58.552Z,0.52
2023-01-25T04:24:51.372Z,0.49
2023-01-25T04:28:44.111Z,0.42
2023-01-25T04:32:37.339Z,0.32
2023-01-25T04:36:29.933Z,0.42
2023-01-25T04:40:22.756Z,0.45
2023-01-25T04:44:15.818Z,0.22
2023-01-25T04:48:10.098Z,0.30
2023-01-25T04:52:03.502Z,0.25
2023-01-25T04:55:56.677Z,0.28
2023-01-25T04:59:49.380Z,0.29
2023-01-25T05:03:41.893Z,0.19
2023-01-25T05:07:34.712Z,0.28
2023-01-25T05:11:28.475Z,0.14
2023-01-25T05:15:21.015Z,0.33
2023-01-25T05:19:13.862Z,0.14
2023-01-25T05:23:06.732Z,0.28
2023-01-25T05:27:05.926Z,0.22
2023-01-25T05:30:59.222Z,0.08
2023-01-25T05:34:52.197Z,0.26
2023-01-25T05:38:44.906Z,0.25
2023-01-25T05:42:37.749Z,0.39
2023-01-25T05:46:30.613Z,0.38
2023-01-25T05:50:25.403Z,0.46
2023-01-25T05:54:19.594Z,0.60
2023-01-25T05:58:12.263Z,0.52
2023-01-25T06:02:04.943Z,0.49
2023-01-25T06:05:59.474Z,0.54
2023-01-25T06:09:52.027Z,0.52
2023-01-25T06:13:45.433Z,0.59
2023-01-25T06:17:38.288Z,0.56
2023-01-25T06:21:32.100Z,0.45
2023-01-25T06:25:24.730Z,0.54
2023-01-25T06:29:17.615Z,0.66
2023-01-25T06:33:10.436Z,0.59
2023-01-25T06:37:03.023Z,0.52
2023-01-25T06:41:00.329Z,0.63
2023-01-25T06:44:52.983Z,0.63
2023-01-25T06:48:45.865Z,0.57
2023-01-25T06:52:38.904Z,0.56
2023-01-25T06:56:32.977Z,0.59
2023-01-25T07:00:25.939Z,0.66
2023-01-25T07:04:18.623Z,0.63
2023-01-25T07:08:11.582Z,0.49
2023-01-25T07:12:05.230Z,0.60
2023-01-25T07:16:03.128Z,0.60
2023-01-25T07:19:56.014Z,0.53
2023-01-25T07:23:50.005Z,0.45
2023-01-25T07:27:42.715Z,0.41
2023-01-25T07:31:35.659Z,0.35
2023-01-25T07:35:28.925Z,0.36
2023-01-25T07:39:21.590Z,0.28
2023-01-25T07:43:14.190Z,0.45
2023-01-25T07:47:07.186Z,0.46
2023-01-25T07:51:11.872Z,0.56
2023-01-25T07:55:05.460Z,0.56
2023-01-25T07:58:59.646Z,0.54
2023-01-25T08:02:53.230Z,0.59
2023-01-25T08:06:46.673Z,0.60
2023-01-25T08:10:39.692Z,0.54
2023-01-25T08:14:32.482Z,0.70
2023-01-25T08:18:25.722Z,0.73
2023-01-25T08:22:18.758Z,0.69
2023-01-25T08:26:14.045Z,0.88
2023-01-25T08:30:07.457Z,0.91
2023-01-25T08:34:01.483Z,0.95
2023-01-25T08:37:54.160Z,0.85
2023-01-25T08:41:47.681Z,1.00
2023-01-25T08:45:40.395Z,1.01
2023-01-25T08:49:34.693Z,0.84
2023-01-25T08:53:32.301Z,0.83
2023-01-25T08:57:25.755Z,0.87
2023-01-25T09:01:20.533Z,1.01
2023-01-25T09:05:15.887Z,1.04
2023-01-25T09:09:08.925Z,1.04
2023-01-25T09:13:01.720Z,1.07
2023-01-25T09:16:54.463Z,0.88
2023-01-25T09:20:47.455Z,0.70
2023-01-25T09:24:40.656Z,0.85
2023-01-25T09:28:34.053Z,1.05
2023-01-25T09:32:28.218Z,0.88
2023-01-25T09:36:21.453Z,0.80
2023-01-25T09:40:22.002Z,0.85
2023-01-25T09:44:38.881Z,1.00
2023-01-25T09:48:42.851Z,1.15
2023-01-25T09:53:10.935Z,1.05
2023-01-25T09:57:03.967Z,1.19
2023-01-25T10:01:14.399Z,1.17
2023-01-25T10:05:15.193Z,1.28
2023-01-25T10:09:23.213Z,1.27
2023-01-25T10:13:19.684Z,1.25
2023-01-25T10:17:35.030Z,1.25
2023-01-25T10:21:37.029Z,1.22
2023-01-25T10:25:36.508Z,1.34
2023-01-25T10:29:33.271Z,1.38
2023-01-25T10:33:28.027Z,1.22
2023-01-25T10:37:23.686Z,1.19
2023-01-25T10:41:27.136Z,1.22
2023-01-25T10:45:19.781Z,1.25
2023-01-25T10:49:24.647Z,1.31
2023-01-25T10:53:23.671Z,1.27
2023-01-25T10:57:22.641Z,1.21
2023-01-25T11:01:28.704Z,1.22
2023-01-25T11:05:30.360Z,1.42
2023-01-25T11:09:23.049Z,1.55
2023-01-25T11:13:16.294Z,1.49
2023-01-25T11:17:27.864Z,1.47
2023-01-25T11:21:33.673Z,1.55
2023-01-25T11:25:33.468Z,1.67
2023-01-25T11:29:26.547Z,1.67
2023-01-25T11:33:21.774Z,1.74
2023-01-25T11:37:38.464Z,1.66
2023-01-25T11:41:39.091Z,1.71
2023-01-25T11:46:01.819Z,1.67
2023-01-25T11:50:07.914Z,1.88
2023-01-25T11:54:27.436Z,1.90
2023-01-25T11:58:20.010Z,1.93
2023-01-25T12:02:37.746Z,2.03
2023-01-25T12:06:42.726Z,1.97
2023-01-25T12:10:49.079Z,2.01
2023-01-25T12:14:59.898Z,2.00
2023-01-25T12:19:18.906Z,1.88
2023-01-25T12:23:25.035Z,1.98
2023-01-25T12:27:25.920Z,1.81
2023-01-25T12:31:29.392Z,2.01
2023-01-25T12:35:34.617Z,1.97
2023-01-25T12:39:41.230Z,2.07
2023-01-25T12:43:40.599Z,2.15
2023-01-25T12:47:43.102Z,2.22
2023-01-25T12:51:40.249Z,2.20
2023-01-25T12:55:33.903Z,2.32
2023-01-25T12:59:55.690Z,2.25
2023-01-25T13:03:57.101Z,2.31
2023-01-25T13:07:54.704Z,2.31
2023-01-25T13:11:48.549Z,2.45
2023-01-25T13:15:43.611Z,2.56
2023-01-25T13:19:36.394Z,2.60
2023-01-25T13:23:52.350Z,2.57
2023-01-25T13:27:45.095Z,2.59
2023-01-25T13:31:58.904Z,2.48
2023-01-25T13:35:53.865Z,2.28
2023-01-25T13:39:54.984Z,2.28
2023-01-25T13:43:50.962Z,2.35
2023-01-25T13:47:45.639Z,2.39
2023-01-25T13:51:41.027Z,2.38
2023-01-25T13:55:42.928Z,2.45
2023-01-25T13:59:35.542Z,2.50
2023-01-25T14:03:43.479Z,2.43
2023-01-25T14:07:37.464Z,2.46
2023-01-25T14:11:34.741Z,2.46
2023-01-25T14:15:33.231Z,2.53
2023-01-25T14:19:31.049Z,2.41
2023-01-25T14:23:28.278Z,2.39
2023-01-25T14:27:21.660Z,2.49
2023-01-25T14:31:24.720Z,2.41
2023-01-25T14:35:43.066Z,2.49
2023-01-25T14:39:42.705Z,2.43
2023-01-25T14:43:37.531Z,2.49
2023-01-25T14:47:31.681Z,2.38
2023-01-25T14:51:29.144Z,2.32
2023-01-25T14:55:21.981Z,2.35
2023-01-25T14:59:35.143Z,2.21
2023-01-25T15:03:30.407Z,2.29
2023-01-25T15:07:47.908Z,2.26
2023-01-25T15:11:46.469Z,2.26
2023-01-25T15:16:02.918Z,2.32
2023-01-25T15:19:55.685Z,2.20
2023-01-25T15:23:49.992Z,2.20
2023-01-25T15:27:43.044Z,2.26
2023-01-25T15:31:38.411Z,2.21
2023-01-25T15:35:31.241Z,2.33
2023-01-25T15:39:24.677Z,2.26
2023-01-25T15:43:19.458Z,2.25
2023-01-25T15:47:12.178Z,2.28
2023-01-25T15:51:06.565Z,2.26
2023-01-25T15:55:02.086Z,2.21
2023-01-25T15:58:59.159Z,2.14
2023-01-25T16:02:52.210Z,2.25
2023-01-25T16:06:55.077Z,2.20
2023-01-25T16:10:48.940Z,2.18
2023-01-25T16:14:42.117Z,2.26
2023-01-25T16:18:34.967Z,2.25
2023-01-25T16:22:28.278Z,2.20
2023-01-25T16:26:25.503Z,2.21
2023-01-25T16:30:26.014Z,2.21
2023-01-25T16:34:21.614Z,2.22
2023-01-25T16:38:15.981Z,2.24
2023-01-25T16:42:13.372Z,2.20
2023-01-25T16:46:07.524Z,2.22
2023-01-25T16:50:00.791Z,2.25
2023-01-25T16:53:56.565Z,2.29
2023-01-25T16:57:52.979Z,2.33
2023-01-25T17:01:47.467Z,2.21
2023-01-25T17:05:40.902Z,2.33
2023-01-25T17:09:34.512Z,2.28
2023-01-25T17:13:28.793Z,2.28
2023-01-25T17:17:24.269Z,2.21
2023-01-25T17:21:21.428Z,2.14
2023-01-25T17:25:15.370Z,2.18
2023-01-25T17:29:10.425Z,2.15
2023-01-25T17:33:06.448Z,2.17
2023-01-25T17:36:59.939Z,2.12
2023-01-25T17:40:54.015Z,2.24
2023-01-25T17:44:48.526Z,2.29
2023-01-25T17:48:42.400Z,2.31
2023-01-25T17:52:36.873Z,2.29
2023-01-25T17:56:31.208Z,2.22
2023-01-25T18:00:25.671Z,2.25
2023-01-25T18:04:20.988Z,2.24
2023-01-25T18:08:14.807Z,2.21
2023-01-25T18:12:12.242Z,2.20
2023-01-25T18:16:09.264Z,2.28
2023-01-25T18:20:06.127Z,2.24
2023-01-25T18:24:34.257Z,2.26
2023-01-25T18:28:29.135Z,2.24
2023-01-25T18:32:23.557Z,2.15
2023-01-25T18:36:19.605Z,2.18
2023-01-25T18:40:15.445Z,2.12
2023-01-25T18:44:10.627Z,2.21
2023-01-25T18:48:14.526Z,2.17
2023-01-25T18:52:11.982Z,2.14
2023-01-25T18:56:13.733Z,2.12
2023-01-25T19:00:11.763Z,2.10
2023-01-25T19:04:07.001Z,1.98
2023-01-25T19:08:06.790Z,2.08
2023-01-25T19:12:01.726Z,2.18
2023-01-25T19:16:08.052Z,2.21
2023-01-25T19:20:02.906Z,2.21
2023-01-25T19:23:58.565Z,2.14
2023-01-25T19:27:52.850Z,2.10
2023-01-25T19:31:49.210Z,2.17
2023-01-25T19:35:46.601Z,2.25
2023-01-25T19:39:41.287Z,2.20
2023-01-25T19:43:42.218Z,2.18
2023-01-25T19:47:37.755Z,2.21
2023-01-25T19:51:38.447Z,2.25
2023-01-25T19:55:33.173Z,2.21
2023-01-25T19:59:29.338Z,2.10
2023-01-25T20:03:25.360Z,2.11
2023-01-25T20:07:22.193Z,2.12
2023-01-25T20:11:21.479Z,2.21
2023-01-25T20:15:16.092Z,2.12
2023-01-25T20:19:13.802Z,2.12
2023-01-25T20:23:12.147Z,2.20
2023-01-25T20:27:08.265Z,2.17
2023-01-25T20:31:04.722Z,2.01
2023-01-25T20:35:04.246Z,2.11
2023-01-25T20:39:00.005Z,2.07
2023-01-25T20:42:55.051Z,2.03
2023-01-25T20:46:51.869Z,2.05
2023-01-25T20:50:46.289Z,2.20
2023-01-25T20:54:42.471Z,2.17
2023-01-25T20:58:37.821Z,2.08
2023-01-25T21:02:32.224Z,2.12
2023-01-25T21:06:28.104Z,2.01
2023-01-25T21:10:22.473Z,1.98
2023-01-25T21:14:16.557Z,2.03
2023-01-25T21:18:12.170Z,2.01
2023-01-25T21:22:05.801Z,2.11
2023-01-25T21:25:59.678Z,2.12
2023-01-25T21:29:53.653Z,2.03
2023-01-25T21:33:49.528Z,1.98
2023-01-25T21:37:46.176Z,2.11
2023-01-25T21:41:40.336Z,2.18
2023-01-25T21:45:52.273Z,2.15
2023-01-25T21:50:05.219Z,2.12
2023-01-25T21:54:00.137Z,2.07
2023-01-25T21:57:53.885Z,2.04
2023-01-25T22:01:49.669Z,1.98
2023-01-25T22:05:43.545Z,2.11
2023-01-25T22:09:36.661Z,2.05
2023-01-25T22:13:31.208Z,2.07
2023-01-25T22:17:25.751Z,2.07
2023-01-25T22:21:30.922Z,2.10
2023-01-25T22:25:23.502Z,2.21
2023-01-25T22:29:16.624Z,2.14
2023-01-25T22:33:09.512Z,2.11
2023-01-25T22:37:02.459Z,2.08
2023-01-25T22:40:56.543Z,1.97
2023-01-25T22:44:49.374Z,2.07
2023-01-25T22:48:41.989Z,2.17
2023-01-25T22:52:34.948Z,2.17
2023-01-25T22:56:32.121Z,2.17
2023-01-25T23:00:25.389Z,2.18
2023-01-25T23:04:18.449Z,2.18
2023-01-25T23:08:11.274Z,2.17
2023-01-25T23:12:04.477Z,2.14
2023-01-25T23:16:01.225Z,2.28
2023-01-25T23:19:53.956Z,2.29
2023-01-25T23:23:47.647Z,2.25
2023-01-25T23:27:40.474Z,2.21
2023-01-25T23:31:33.880Z,2.20
2023-01-25T23:35:27.464Z,2.20
2023-01-25T23:39:20.325Z,2.21
2023-01-25T23:43:13.475Z,2.26
2023-01-25T23:47:06.464Z,2.26
2023-01-25T23:51:02.662Z,2.21
2023-01-25T23:54:55.278Z,2.24
2023-01-25T23:58:49.270Z,2.25
